sensor_id;sensor_type;location;lat;lon;timestamp;temperature;humidity
28175;SHT30;59417;44.788;10.334;2024-01-16T00:00:15;4.14;77.56
28175;SHT30;59417;44.788;10.334;2024-01-16T00:02:42;4.07;77.60
28175;SHT30;59417;44.788;10.334;2024-01-16T00:05:10;4.21;77.65
28175;SHT30;59417;44.788;10.334;2024-01-16T00:07:39;4.20;77.24
28175;SHT30;59417;44.788;10.334;2024-01-16T00:10:09;4.21;77.57
28175;SHT30;59417;44.788;10.334;2024-01-16T00:12:35;4.29;77.76
28175;SHT30;59417;44.788;10.334;2024-01-16T00:15:01;4.35;77.74
28175;SHT30;59417;44.788;10.334;2024-01-16T00:17:26;4.38;77.05
28175;SHT30;59417;44.788;10.334;2024-01-16T00:19:52;4.15;77.19
28175;SHT30;59417;44.788;10.334;2024-01-16T00:22:18;4.24;77.08
28175;SHT30;59417;44.788;10.334;2024-01-16T00:24:46;4.07;77.77
28175;SHT30;59417;44.788;10.334;2024-01-16T00:27:12;4.14;77.61
28175;SHT30;59417;44.788;10.334;2024-01-16T00:29:37;4.18;77.56
28175;SHT30;59417;44.788;10.334;2024-01-16T00:32:04;4.10;77.56
28175;SHT30;59417;44.788;10.334;2024-01-16T00:34:29;4.10;77.78
28175;SHT30;59417;44.788;10.334;2024-01-16T00:36:58;4.04;77.61
28175;SHT30;59417;44.788;10.334;2024-01-16T00:39:27;3.98;77.42
28175;SHT30;59417;44.788;10.334;2024-01-16T00:41:54;4.00;77.63
28175;SHT30;59417;44.788;10.334;2024-01-16T00:44:20;4.02;77.51
28175;SHT30;59417;44.788;10.334;2024-01-16T00:46:49;3.89;77.50
28175;SHT30;59417;44.788;10.334;2024-01-16T00:49:15;3.89;77.79
28175;SHT30;59417;44.788;10.334;2024-01-16T00:51:41;3.77;78.25
28175;SHT30;59417;44.788;10.334;2024-01-16T00:54:10;3.74;78.37
28175;SHT30;59417;44.788;10.334;2024-01-16T00:56:41;3.76;78.26
28175;SHT30;59417;44.788;10.334;2024-01-16T00:59:09;3.79;78.30
28175;SHT30;59417;44.788;10.334;2024-01-16T01:01:38;3.80;78.23
28175;SHT30;59417;44.788;10.334;2024-01-16T01:04:06;3.76;78.53
28175;SHT30;59417;44.788;10.334;2024-01-16T01:06:32;3.81;77.94
28175;SHT30;59417;44.788;10.334;2024-01-16T01:08:58;4.18;76.82
28175;SHT30;59417;44.788;10.334;2024-01-16T01:15:15;3.52;79.14
28175;SHT30;59417;44.788;10.334;2024-01-16T01:17:43;3.47;79.50
28175;SHT30;59417;44.788;10.334;2024-01-16T01:39:16;3.79;78.61
28175;SHT30;59417;44.788;10.334;2024-01-16T01:42:31;3.84;78.17
28175;SHT30;59417;44.788;10.334;2024-01-16T01:45:00;3.81;77.93
28175;SHT30;59417;44.788;10.334;2024-01-16T01:47:26;3.83;78.22
28175;SHT30;59417;44.788;10.334;2024-01-16T01:49:53;3.81;78.52
28175;SHT30;59417;44.788;10.334;2024-01-16T01:52:22;3.87;77.73
28175;SHT30;59417;44.788;10.334;2024-01-16T01:54:48;3.84;77.66
28175;SHT30;59417;44.788;10.334;2024-01-16T01:57:15;3.91;77.59
28175;SHT30;59417;44.788;10.334;2024-01-16T01:59:41;3.74;78.02
28175;SHT30;59417;44.788;10.334;2024-01-16T02:02:10;3.71;78.61
28175;SHT30;59417;44.788;10.334;2024-01-16T02:04:38;3.81;78.33
28175;SHT30;59417;44.788;10.334;2024-01-16T02:07:05;3.74;78.40
28175;SHT30;59417;44.788;10.334;2024-01-16T02:09:32;3.81;78.38
28175;SHT30;59417;44.788;10.334;2024-01-16T02:11:57;3.71;78.46
28175;SHT30;59417;44.788;10.334;2024-01-16T02:14:23;3.70;78.05
28175;SHT30;59417;44.788;10.334;2024-01-16T02:16:48;3.62;78.60
28175;SHT30;59417;44.788;10.334;2024-01-16T02:19:15;3.52;78.73
28175;SHT30;59417;44.788;10.334;2024-01-16T02:21:48;3.53;78.82
28175;SHT30;59417;44.788;10.334;2024-01-16T02:24:15;3.57;78.79
28175;SHT30;59417;44.788;10.334;2024-01-16T02:26:42;3.50;78.58
28175;SHT30;59417;44.788;10.334;2024-01-16T02:29:08;3.47;78.89
28175;SHT30;59417;44.788;10.334;2024-01-16T02:31:36;3.50;78.45
28175;SHT30;59417;44.788;10.334;2024-01-16T02:34:02;3.40;78.87
28175;SHT30;59417;44.788;10.334;2024-01-16T02:36:29;3.38;79.06
28175;SHT30;59417;44.788;10.334;2024-01-16T02:38:56;3.36;79.38
28175;SHT30;59417;44.788;10.334;2024-01-16T02:41:22;3.42;79.02
28175;SHT30;59417;44.788;10.334;2024-01-16T02:43:47;3.56;78.77
28175;SHT30;59417;44.788;10.334;2024-01-16T02:46:16;3.46;78.52
28175;SHT30;59417;44.788;10.334;2024-01-16T02:48:42;3.49;78.51
28175;SHT30;59417;44.788;10.334;2024-01-16T02:51:08;3.55;78.31
28175;SHT30;59417;44.788;10.334;2024-01-16T02:53:34;3.46;78.35
28175;SHT30;59417;44.788;10.334;2024-01-16T02:56:00;3.53;78.21
28175;SHT30;59417;44.788;10.334;2024-01-16T02:58:29;3.57;78.13
28175;SHT30;59417;44.788;10.334;2024-01-16T03:00:55;3.57;77.93
28175;SHT30;59417;44.788;10.334;2024-01-16T03:03:21;3.52;78.14
28175;SHT30;59417;44.788;10.334;2024-01-16T03:05:47;3.45;78.34
28175;SHT30;59417;44.788;10.334;2024-01-16T03:08:17;3.42;78.44
28175;SHT30;59417;44.788;10.334;2024-01-16T03:10:43;3.35;78.63
28175;SHT30;59417;44.788;10.334;2024-01-16T03:13:11;3.39;78.52
28175;SHT30;59417;44.788;10.334;2024-01-16T03:15:37;3.35;78.61
28175;SHT30;59417;44.788;10.334;2024-01-16T03:18:03;3.35;78.81
28175;SHT30;59417;44.788;10.334;2024-01-16T03:20:28;3.35;79.12
28175;SHT30;59417;44.788;10.334;2024-01-16T03:22:54;3.42;79.26
28175;SHT30;59417;44.788;10.334;2024-01-16T03:25:20;3.38;78.94
28175;SHT30;59417;44.788;10.334;2024-01-16T03:27:46;3.36;78.68
28175;SHT30;59417;44.788;10.334;2024-01-16T03:30:12;3.40;78.30
28175;SHT30;59417;44.788;10.334;2024-01-16T03:32:38;3.16;79.00
28175;SHT30;59417;44.788;10.334;2024-01-16T03:35:05;3.13;79.06
28175;SHT30;59417;44.788;10.334;2024-01-16T03:37:33;3.09;79.06
28175;SHT30;59417;44.788;10.334;2024-01-16T03:40:00;3.04;79.53
28175;SHT30;59417;44.788;10.334;2024-01-16T03:42:25;3.12;79.43
28175;SHT30;59417;44.788;10.334;2024-01-16T03:44:51;3.05;79.36
28175;SHT30;59417;44.788;10.334;2024-01-16T03:47:17;3.18;78.91
28175;SHT30;59417;44.788;10.334;2024-01-16T03:49:43;3.13;78.71
28175;SHT30;59417;44.788;10.334;2024-01-16T03:52:08;3.18;79.03
28175;SHT30;59417;44.788;10.334;2024-01-16T03:54:34;3.23;78.57
28175;SHT30;59417;44.788;10.334;2024-01-16T03:57:01;3.19;78.31
28175;SHT30;59417;44.788;10.334;2024-01-16T03:59:27;3.12;78.27
28175;SHT30;59417;44.788;10.334;2024-01-16T04:01:53;2.98;78.82
28175;SHT30;59417;44.788;10.334;2024-01-16T04:04:19;2.84;79.33
28175;SHT30;59417;44.788;10.334;2024-01-16T04:06:45;2.88;79.55
28175;SHT30;59417;44.788;10.334;2024-01-16T04:09:11;2.84;79.43
28175;SHT30;59417;44.788;10.334;2024-01-16T04:11:37;2.94;79.22
28175;SHT30;59417;44.788;10.334;2024-01-16T04:14:02;2.92;78.50
28175;SHT30;59417;44.788;10.334;2024-01-16T04:16:28;2.84;78.77
28175;SHT30;59417;44.788;10.334;2024-01-16T04:18:54;2.91;78.80
28175;SHT30;59417;44.788;10.334;2024-01-16T04:21:19;2.91;78.52
28175;SHT30;59417;44.788;10.334;2024-01-16T04:23:45;3.29;77.08
28175;SHT30;59417;44.788;10.334;2024-01-16T04:26:11;3.09;78.17
28175;SHT30;59417;44.788;10.334;2024-01-16T04:28:37;2.92;78.63
28175;SHT30;59417;44.788;10.334;2024-01-16T04:31:05;2.80;79.18
28175;SHT30;59417;44.788;10.334;2024-01-16T04:33:32;2.68;79.32
28175;SHT30;59417;44.788;10.334;2024-01-16T04:35:57;2.87;79.09
28175;SHT30;59417;44.788;10.334;2024-01-16T04:38:23;2.88;78.96
28175;SHT30;59417;44.788;10.334;2024-01-16T04:40:49;2.94;78.68
28175;SHT30;59417;44.788;10.334;2024-01-16T04:43:15;2.95;78.64
28175;SHT30;59417;44.788;10.334;2024-01-16T04:45:41;3.02;78.57
28175;SHT30;59417;44.788;10.334;2024-01-16T04:48:07;3.09;78.35
28175;SHT30;59417;44.788;10.334;2024-01-16T04:50:34;3.05;78.02
28175;SHT30;59417;44.788;10.334;2024-01-16T04:53:00;2.92;78.14
28175;SHT30;59417;44.788;10.334;2024-01-16T04:55:27;2.99;78.43
28175;SHT30;59417;44.788;10.334;2024-01-16T04:57:54;3.06;78.41
28175;SHT30;59417;44.788;10.334;2024-01-16T05:00:20;2.96;78.39
28175;SHT30;59417;44.788;10.334;2024-01-16T05:02:47;3.04;78.77
28175;SHT30;59417;44.788;10.334;2024-01-16T05:05:14;3.04;79.10
28175;SHT30;59417;44.788;10.334;2024-01-16T05:07:42;2.92;79.13
28175;SHT30;59417;44.788;10.334;2024-01-16T05:10:12;2.99;79.04
28175;SHT30;59417;44.788;10.334;2024-01-16T05:12:41;2.96;79.03
28175;SHT30;59417;44.788;10.334;2024-01-16T05:15:10;2.98;78.91
28175;SHT30;59417;44.788;10.334;2024-01-16T05:17:36;3.05;78.92
28175;SHT30;59417;44.788;10.334;2024-01-16T05:20:03;3.06;79.05
28175;SHT30;59417;44.788;10.334;2024-01-16T05:27:56;2.73;79.01
28175;SHT30;59417;44.788;10.334;2024-01-16T05:30:21;2.80;78.88
28175;SHT30;59417;44.788;10.334;2024-01-16T05:32:47;2.83;79.19
28175;SHT30;59417;44.788;10.334;2024-01-16T05:35:13;2.80;79.36
28175;SHT30;59417;44.788;10.334;2024-01-16T05:37:39;2.85;78.72
28175;SHT30;59417;44.788;10.334;2024-01-16T05:40:08;2.92;77.58
28175;SHT30;59417;44.788;10.334;2024-01-16T05:42:34;2.78;77.91
28175;SHT30;59417;44.788;10.334;2024-01-16T05:45:02;2.61;77.95
28175;SHT30;59417;44.788;10.334;2024-01-16T05:47:28;2.36;79.06
28175;SHT30;59417;44.788;10.334;2024-01-16T05:49:54;2.42;78.67
28175;SHT30;59417;44.788;10.334;2024-01-16T05:52:20;2.28;78.98
28175;SHT30;59417;44.788;10.334;2024-01-16T05:54:45;2.32;79.51
28175;SHT30;59417;44.788;10.334;2024-01-16T05:57:11;2.47;79.29
28175;SHT30;59417;44.788;10.334;2024-01-16T05:59:36;2.65;78.51
28175;SHT30;59417;44.788;10.334;2024-01-16T06:02:02;2.65;78.17
28175;SHT30;59417;44.788;10.334;2024-01-16T06:04:28;2.53;78.29
28175;SHT30;59417;44.788;10.334;2024-01-16T06:06:53;2.54;78.77
28175;SHT30;59417;44.788;10.334;2024-01-16T06:09:19;2.64;78.54
28175;SHT30;59417;44.788;10.334;2024-01-16T06:11:46;2.57;78.11
28175;SHT30;59417;44.788;10.334;2024-01-16T06:14:13;2.51;77.85
28175;SHT30;59417;44.788;10.334;2024-01-16T06:16:39;2.39;78.34
28175;SHT30;59417;44.788;10.334;2024-01-16T06:19:05;2.46;78.39
28175;SHT30;59417;44.788;10.334;2024-01-16T06:21:31;2.46;78.34
28175;SHT30;59417;44.788;10.334;2024-01-16T06:23:56;2.34;78.64
28175;SHT30;59417;44.788;10.334;2024-01-16T06:26:26;2.34;79.26
28175;SHT30;59417;44.788;10.334;2024-01-16T06:28:52;2.39;79.60
28175;SHT30;59417;44.788;10.334;2024-01-16T06:31:17;2.47;79.53
28175;SHT30;59417;44.788;10.334;2024-01-16T06:33:46;2.56;79.34
28175;SHT30;59417;44.788;10.334;2024-01-16T06:36:15;2.65;79.42
28175;SHT30;59417;44.788;10.334;2024-01-16T06:38:44;2.77;79.13
28175;SHT30;59417;44.788;10.334;2024-01-16T06:41:12;2.84;78.57
28175;SHT30;59417;44.788;10.334;2024-01-16T06:43:39;2.83;77.99
28175;SHT30;59417;44.788;10.334;2024-01-16T06:46:05;2.75;77.49
28175;SHT30;59417;44.788;10.334;2024-01-16T06:48:33;2.77;78.13
28175;SHT30;59417;44.788;10.334;2024-01-16T06:50:59;2.67;78.45
28175;SHT30;59417;44.788;10.334;2024-01-16T06:53:26;2.54;78.99
28175;SHT30;59417;44.788;10.334;2024-01-16T06:55:52;2.61;79.18
28175;SHT30;59417;44.788;10.334;2024-01-16T06:58:18;2.63;79.02
28175;SHT30;59417;44.788;10.334;2024-01-16T07:00:44;2.61;78.28
28175;SHT30;59417;44.788;10.334;2024-01-16T07:03:11;2.63;78.29
28175;SHT30;59417;44.788;10.334;2024-01-16T07:05:37;2.83;77.77
28175;SHT30;59417;44.788;10.334;2024-01-16T07:08:03;2.57;78.29
28175;SHT30;59417;44.788;10.334;2024-01-16T07:10:35;2.43;79.01
28175;SHT30;59417;44.788;10.334;2024-01-16T07:13:06;2.37;79.07
28175;SHT30;59417;44.788;10.334;2024-01-16T07:15:32;2.44;78.98
28175;SHT30;59417;44.788;10.334;2024-01-16T07:17:58;2.53;79.13
28175;SHT30;59417;44.788;10.334;2024-01-16T07:20:29;2.43;79.10
28175;SHT30;59417;44.788;10.334;2024-01-16T07:22:55;2.43;79.07
28175;SHT30;59417;44.788;10.334;2024-01-16T07:25:23;2.63;78.69
28175;SHT30;59417;44.788;10.334;2024-01-16T07:27:49;2.63;78.68
28175;SHT30;59417;44.788;10.334;2024-01-16T07:30:18;2.65;78.90
28175;SHT30;59417;44.788;10.334;2024-01-16T07:32:45;2.70;78.53
28175;SHT30;59417;44.788;10.334;2024-01-16T07:35:11;2.51;79.01
28175;SHT30;59417;44.788;10.334;2024-01-16T07:37:37;2.57;79.68
28175;SHT30;59417;44.788;10.334;2024-01-16T07:40:06;2.64;79.55
28175;SHT30;59417;44.788;10.334;2024-01-16T07:42:32;2.70;79.49
28175;SHT30;59417;44.788;10.334;2024-01-16T07:45:04;2.84;79.45
28175;SHT30;59417;44.788;10.334;2024-01-16T07:47:31;2.95;79.06
28175;SHT30;59417;44.788;10.334;2024-01-16T07:49:59;2.94;78.87
28175;SHT30;59417;44.788;10.334;2024-01-16T07:52:27;2.99;78.79
28175;SHT30;59417;44.788;10.334;2024-01-16T07:54:54;3.04;78.51
28175;SHT30;59417;44.788;10.334;2024-01-16T07:57:20;2.87;79.46
28175;SHT30;59417;44.788;10.334;2024-01-16T07:59:48;2.80;80.08
28175;SHT30;59417;44.788;10.334;2024-01-16T08:02:14;2.94;80.11
28175;SHT30;59417;44.788;10.334;2024-01-16T08:04:43;3.05;79.96
28175;SHT30;59417;44.788;10.334;2024-01-16T08:07:11;3.09;80.26
28175;SHT30;59417;44.788;10.334;2024-01-16T08:09:39;3.09;80.45
28175;SHT30;59417;44.788;10.334;2024-01-16T08:12:08;3.20;80.49
28175;SHT30;59417;44.788;10.334;2024-01-16T08:14:34;3.33;80.35
28175;SHT30;59417;44.788;10.334;2024-01-16T08:17:00;3.29;80.12
28175;SHT30;59417;44.788;10.334;2024-01-16T08:19:26;3.35;80.21
28175;SHT30;59417;44.788;10.334;2024-01-16T08:21:53;3.39;80.33
28175;SHT30;59417;44.788;10.334;2024-01-16T08:24:22;3.38;80.52
28175;SHT30;59417;44.788;10.334;2024-01-16T08:26:48;3.57;80.51
28175;SHT30;59417;44.788;10.334;2024-01-16T08:29:15;3.62;80.45
28175;SHT30;59417;44.788;10.334;2024-01-16T08:31:41;3.71;80.36
28175;SHT30;59417;44.788;10.334;2024-01-16T08:34:06;3.81;80.42
28175;SHT30;59417;44.788;10.334;2024-01-16T08:36:37;3.90;80.32
28175;SHT30;59417;44.788;10.334;2024-01-16T08:39:08;3.95;80.63
28175;SHT30;59417;44.788;10.334;2024-01-16T08:41:36;4.04;80.52
28175;SHT30;59417;44.788;10.334;2024-01-16T08:44:03;4.12;80.34
28175;SHT30;59417;44.788;10.334;2024-01-16T08:46:29;4.26;80.27
28175;SHT30;59417;44.788;10.334;2024-01-16T08:48:55;4.42;80.11
28175;SHT30;59417;44.788;10.334;2024-01-16T08:51:24;4.42;80.13
28175;SHT30;59417;44.788;10.334;2024-01-16T08:53:51;4.51;79.61
28175;SHT30;59417;44.788;10.334;2024-01-16T08:56:19;4.68;78.75
28175;SHT30;59417;44.788;10.334;2024-01-16T08:58:47;4.77;78.16
28175;SHT30;59417;44.788;10.334;2024-01-16T09:01:13;4.87;78.17
28175;SHT30;59417;44.788;10.334;2024-01-16T09:03:40;4.97;77.80
28175;SHT30;59417;44.788;10.334;2024-01-16T09:06:09;5.13;76.56
28175;SHT30;59417;44.788;10.334;2024-01-16T09:08:37;5.13;76.56
28175;SHT30;59417;44.788;10.334;2024-01-16T09:11:04;5.24;76.54
28175;SHT30;59417;44.788;10.334;2024-01-16T09:16:26;5.20;75.99
28175;SHT30;59417;44.788;10.334;2024-01-16T09:21:38;5.10;75.79
28175;SHT30;59417;44.788;10.334;2024-01-16T09:24:06;5.08;75.75
28175;SHT30;59417;44.788;10.334;2024-01-16T09:26:34;5.08;75.76
28175;SHT30;59417;44.788;10.334;2024-01-16T09:31:43;5.37;75.12
28175;SHT30;59417;44.788;10.334;2024-01-16T09:34:22;5.54;73.86
28175;SHT30;59417;44.788;10.334;2024-01-16T09:37:12;5.42;75.02
28175;SHT30;59417;44.788;10.334;2024-01-16T09:40:11;5.35;75.56
28175;SHT30;59417;44.788;10.334;2024-01-16T09:46:17;5.54;75.96
28175;SHT30;59417;44.788;10.334;2024-01-16T09:49:10;5.67;76.31
28175;SHT30;59417;44.788;10.334;2024-01-16T09:52:19;5.64;76.46
28175;SHT30;59417;44.788;10.334;2024-01-16T09:55:27;5.64;76.43
28175;SHT30;59417;44.788;10.334;2024-01-16T09:58:21;5.69;76.46
28175;SHT30;59417;44.788;10.334;2024-01-16T10:01:03;5.78;76.68
28175;SHT30;59417;44.788;10.334;2024-01-16T10:04:15;5.92;76.45
28175;SHT30;59417;44.788;10.334;2024-01-16T10:06:47;5.92;77.16
28175;SHT30;59417;44.788;10.334;2024-01-16T10:09:20;5.96;77.32
28175;SHT30;59417;44.788;10.334;2024-01-16T10:11:47;6.12;77.43
28175;SHT30;59417;44.788;10.334;2024-01-16T10:14:18;6.12;77.63
28175;SHT30;59417;44.788;10.334;2024-01-16T10:17:08;6.33;77.26
28175;SHT30;59417;44.788;10.334;2024-01-16T10:19:50;6.50;76.37
28175;SHT30;59417;44.788;10.334;2024-01-16T10:22:23;6.47;77.30
28175;SHT30;59417;44.788;10.334;2024-01-16T10:25:10;6.48;77.55
28175;SHT30;59417;44.788;10.334;2024-01-16T10:28:12;6.50;77.56
28175;SHT30;59417;44.788;10.334;2024-01-16T10:31:08;6.57;77.42
28175;SHT30;59417;44.788;10.334;2024-01-16T10:33:58;6.63;76.70
28175;SHT30;59417;44.788;10.334;2024-01-16T10:36:33;6.61;77.18
28175;SHT30;59417;44.788;10.334;2024-01-16T10:39:14;6.80;76.94
28175;SHT30;59417;44.788;10.334;2024-01-16T10:42:00;6.81;76.84
28175;SHT30;59417;44.788;10.334;2024-01-16T10:44:37;6.68;77.25
28175;SHT30;59417;44.788;10.334;2024-01-16T10:47:10;6.67;77.47
28175;SHT30;59417;44.788;10.334;2024-01-16T10:49:42;6.73;77.55
28175;SHT30;59417;44.788;10.334;2024-01-16T10:52:47;6.77;77.70
28175;SHT30;59417;44.788;10.334;2024-01-16T10:55:43;6.88;77.59
28175;SHT30;59417;44.788;10.334;2024-01-16T10:58:24;7.15;76.60
28175;SHT30;59417;44.788;10.334;2024-01-16T11:00:57;7.02;75.87
28175;SHT30;59417;44.788;10.334;2024-01-16T11:03:45;6.96;76.53
28175;SHT30;59417;44.788;10.334;2024-01-16T11:06:31;7.05;75.91
28175;SHT30;59417;44.788;10.334;2024-01-16T11:09:01;7.35;75.30
28175;SHT30;59417;44.788;10.334;2024-01-16T11:11:28;7.36;75.40
28175;SHT30;59417;44.788;10.334;2024-01-16T11:13:57;7.43;74.91
28175;SHT30;59417;44.788;10.334;2024-01-16T11:16:24;7.39;75.21
28175;SHT30;59417;44.788;10.334;2024-01-16T11:18:50;7.42;75.42
28175;SHT30;59417;44.788;10.334;2024-01-16T11:21:20;7.51;75.03
28175;SHT30;59417;44.788;10.334;2024-01-16T11:23:46;7.57;74.14
28175;SHT30;59417;44.788;10.334;2024-01-16T11:26:35;7.64;73.57
28175;SHT30;59417;44.788;10.334;2024-01-16T11:32:32;7.88;71.05
28175;SHT30;59417;44.788;10.334;2024-01-16T11:34:58;7.93;70.51
28175;SHT30;59417;44.788;10.334;2024-01-16T11:37:31;8.02;70.58
28175;SHT30;59417;44.788;10.334;2024-01-16T11:40:20;8.01;70.40
28175;SHT30;59417;44.788;10.334;2024-01-16T11:47:20;8.02;69.41
28175;SHT30;59417;44.788;10.334;2024-01-16T11:53:09;7.90;69.51
28175;SHT30;59417;44.788;10.334;2024-01-16T12:01:47;8.10;70.03
28175;SHT30;59417;44.788;10.334;2024-01-16T12:04:16;8.22;70.28
28175;SHT30;59417;44.788;10.334;2024-01-16T12:06:57;8.31;70.14
28175;SHT30;59417;44.788;10.334;2024-01-16T12:09:31;8.32;70.24
28175;SHT30;59417;44.788;10.334;2024-01-16T12:12:01;8.38;69.97
28175;SHT30;59417;44.788;10.334;2024-01-16T12:14:27;8.53;69.29
28175;SHT30;59417;44.788;10.334;2024-01-16T12:17:08;8.66;69.46
28175;SHT30;59417;44.788;10.334;2024-01-16T12:19:35;8.63;68.97
28175;SHT30;59417;44.788;10.334;2024-01-16T12:22:04;8.81;67.56
28175;SHT30;59417;44.788;10.334;2024-01-16T12:24:30;8.63;68.25
28175;SHT30;59417;44.788;10.334;2024-01-16T12:26:59;8.64;69.11
28175;SHT30;59417;44.788;10.334;2024-01-16T12:29:25;8.67;67.94
28175;SHT30;59417;44.788;10.334;2024-01-16T12:32:04;8.54;69.46
28175;SHT30;59417;44.788;10.334;2024-01-16T12:34:32;8.77;70.08
28175;SHT30;59417;44.788;10.334;2024-01-16T12:37:07;8.93;69.83
28175;SHT30;59417;44.788;10.334;2024-01-16T12:39:47;9.08;69.16
28175;SHT30;59417;44.788;10.334;2024-01-16T12:42:17;9.08;67.44
28175;SHT30;59417;44.788;10.334;2024-01-16T12:44:43;9.15;67.47
28175;SHT30;59417;44.788;10.334;2024-01-16T12:47:18;9.17;66.95
28175;SHT30;59417;44.788;10.334;2024-01-16T12:49:49;9.24;67.52
28175;SHT30;59417;44.788;10.334;2024-01-16T12:52:21;9.20;67.72
28175;SHT30;59417;44.788;10.334;2024-01-16T12:54:59;9.27;66.95
28175;SHT30;59417;44.788;10.334;2024-01-16T12:57:26;9.31;67.73
28175;SHT30;59417;44.788;10.334;2024-01-16T13:00:26;9.39;67.12
28175;SHT30;59417;44.788;10.334;2024-01-16T13:02:57;9.45;67.07
28175;SHT30;59417;44.788;10.334;2024-01-16T13:05:30;9.59;66.79
28175;SHT30;59417;44.788;10.334;2024-01-16T13:08:28;9.58;67.00
28175;SHT30;59417;44.788;10.334;2024-01-16T13:11:05;9.52;66.95
28175;SHT30;59417;44.788;10.334;2024-01-16T13:13:35;9.42;67.14
28175;SHT30;59417;44.788;10.334;2024-01-16T13:16:05;9.58;66.51
28175;SHT30;59417;44.788;10.334;2024-01-16T13:18:34;9.54;65.26
28175;SHT30;59417;44.788;10.334;2024-01-16T13:21:04;9.62;65.61
28175;SHT30;59417;44.788;10.334;2024-01-16T13:23:48;9.72;65.83
28175;SHT30;59417;44.788;10.334;2024-01-16T13:26:19;9.55;65.43
28175;SHT30;59417;44.788;10.334;2024-01-16T13:28:45;9.44;66.67
28175;SHT30;59417;44.788;10.334;2024-01-16T13:34:23;9.68;65.75
28175;SHT30;59417;44.788;10.334;2024-01-16T13:36:55;9.52;65.58
28175;SHT30;59417;44.788;10.334;2024-01-16T13:39:25;9.55;65.59
28175;SHT30;59417;44.788;10.334;2024-01-16T13:41:54;9.61;66.08
28175;SHT30;59417;44.788;10.334;2024-01-16T13:44:20;9.58;65.93
28175;SHT30;59417;44.788;10.334;2024-01-16T13:46:50;9.66;65.81
28175;SHT30;59417;44.788;10.334;2024-01-16T13:49:18;9.63;66.04
28175;SHT30;59417;44.788;10.334;2024-01-16T13:51:50;9.59;66.23
28175;SHT30;59417;44.788;10.334;2024-01-16T13:54:20;9.73;65.90
28175;SHT30;59417;44.788;10.334;2024-01-16T13:56:47;9.73;65.77
28175;SHT30;59417;44.788;10.334;2024-01-16T13:59:36;9.51;65.65
28175;SHT30;59417;44.788;10.334;2024-01-16T14:02:27;9.57;65.52
28175;SHT30;59417;44.788;10.334;2024-01-16T14:04:56;9.65;65.23
28175;SHT30;59417;44.788;10.334;2024-01-16T14:07:34;9.59;65.58
28175;SHT30;59417;44.788;10.334;2024-01-16T14:10:04;9.62;65.70
28175;SHT30;59417;44.788;10.334;2024-01-16T14:12:50;9.57;66.28
28175;SHT30;59417;44.788;10.334;2024-01-16T14:15:19;9.47;66.60
28175;SHT30;59417;44.788;10.334;2024-01-16T14:18:09;9.42;67.35
28175;SHT30;59417;44.788;10.334;2024-01-16T14:20:39;9.31;67.49
28175;SHT30;59417;44.788;10.334;2024-01-16T14:23:06;9.17;67.91
28175;SHT30;59417;44.788;10.334;2024-01-16T14:25:34;9.18;67.82
28175;SHT30;59417;44.788;10.334;2024-01-16T14:28:04;8.94;68.13
28175;SHT30;59417;44.788;10.334;2024-01-16T14:30:35;8.80;68.60
28175;SHT30;59417;44.788;10.334;2024-01-16T14:33:06;8.83;68.84
28175;SHT30;59417;44.788;10.334;2024-01-16T14:35:33;8.77;69.72
28175;SHT30;59417;44.788;10.334;2024-01-16T14:37:59;8.79;69.50
28175;SHT30;59417;44.788;10.334;2024-01-16T14:40:25;8.72;69.67
28175;SHT30;59417;44.788;10.334;2024-01-16T14:42:55;8.62;70.18
28175;SHT30;59417;44.788;10.334;2024-01-16T14:45:26;8.62;70.13
28175;SHT30;59417;44.788;10.334;2024-01-16T14:47:54;8.60;69.96
28175;SHT30;59417;44.788;10.334;2024-01-16T14:50:24;8.56;69.46
28175;SHT30;59417;44.788;10.334;2024-01-16T14:52:55;8.46;70.26
28175;SHT30;59417;44.788;10.334;2024-01-16T14:55:22;8.46;70.43
28175;SHT30;59417;44.788;10.334;2024-01-16T14:57:59;8.38;70.74
28175;SHT30;59417;44.788;10.334;2024-01-16T15:00:30;8.59;69.70
28175;SHT30;59417;44.788;10.334;2024-01-16T15:02:59;8.36;70.62
28175;SHT30;59417;44.788;10.334;2024-01-16T15:05:28;8.73;69.15
28175;SHT30;59417;44.788;10.334;2024-01-16T15:07:54;8.62;69.83
28175;SHT30;59417;44.788;10.334;2024-01-16T15:10:25;8.04;75.03
28175;SHT30;59417;44.788;10.334;2024-01-16T15:12:58;7.71;76.97
28175;SHT30;59417;44.788;10.334;2024-01-16T15:15:28;7.11;79.40
28175;SHT30;59417;44.788;10.334;2024-01-16T15:18:00;6.64;81.35
28175;SHT30;59417;44.788;10.334;2024-01-16T15:20:31;6.33;81.91
28175;SHT30;59417;44.788;10.334;2024-01-16T15:23:04;6.44;81.71
28175;SHT30;59417;44.788;10.334;2024-01-16T15:25:36;6.48;81.76
28175;SHT30;59417;44.788;10.334;2024-01-16T15:28:08;6.58;81.53
28175;SHT30;59417;44.788;10.334;2024-01-16T15:30:34;6.82;80.31
28175;SHT30;59417;44.788;10.334;2024-01-16T15:33:04;6.78;80.15
28175;SHT30;59417;44.788;10.334;2024-01-16T15:35:33;6.71;80.26
28175;SHT30;59417;44.788;10.334;2024-01-16T15:37:59;6.64;80.46
28175;SHT30;59417;44.788;10.334;2024-01-16T15:40:30;6.71;80.41
28175;SHT30;59417;44.788;10.334;2024-01-16T15:42:57;6.63;80.45
28175;SHT30;59417;44.788;10.334;2024-01-16T15:45:25;6.55;80.80
28175;SHT30;59417;44.788;10.334;2024-01-16T15:47:51;6.37;81.05
28175;SHT30;59417;44.788;10.334;2024-01-16T15:50:18;6.31;81.29
28175;SHT30;59417;44.788;10.334;2024-01-16T15:52:44;6.19;81.59
28175;SHT30;59417;44.788;10.334;2024-01-16T15:55:11;6.31;81.36
28175;SHT30;59417;44.788;10.334;2024-01-16T15:57:49;6.24;81.34
28175;SHT30;59417;44.788;10.334;2024-01-16T16:00:15;6.21;81.24
28175;SHT30;59417;44.788;10.334;2024-01-16T16:02:48;6.24;80.72
28175;SHT30;59417;44.788;10.334;2024-01-16T16:05:16;6.07;81.19
28175;SHT30;59417;44.788;10.334;2024-01-16T16:08:23;5.93;81.65
28175;SHT30;59417;44.788;10.334;2024-01-16T16:13:51;5.99;81.44
28175;SHT30;59417;44.788;10.334;2024-01-16T16:16:17;5.90;81.54
28175;SHT30;59417;44.788;10.334;2024-01-16T16:18:43;5.86;81.68
28175;SHT30;59417;44.788;10.334;2024-01-16T16:21:12;5.72;81.75
28175;SHT30;59417;44.788;10.334;2024-01-16T16:23:38;5.81;81.76
28175;SHT30;59417;44.788;10.334;2024-01-16T16:26:04;5.67;82.14
28175;SHT30;59417;44.788;10.334;2024-01-16T16:28:30;5.69;82.24
28175;SHT30;59417;44.788;10.334;2024-01-16T16:30:58;5.57;82.71
28175;SHT30;59417;44.788;10.334;2024-01-16T16:33:24;5.52;82.61
28175;SHT30;59417;44.788;10.334;2024-01-16T16:35:53;5.55;82.44
28175;SHT30;59417;44.788;10.334;2024-01-16T16:38:26;5.57;82.76
28175;SHT30;59417;44.788;10.334;2024-01-16T16:40:54;5.49;82.58
28175;SHT30;59417;44.788;10.334;2024-01-16T16:43:23;5.48;82.42
28175;SHT30;59417;44.788;10.334;2024-01-16T16:45:51;5.37;82.67
28175;SHT30;59417;44.788;10.334;2024-01-16T16:48:17;5.30;82.97
28175;SHT30;59417;44.788;10.334;2024-01-16T16:50:43;5.42;82.85